createdAt,value
2022-11-20T00:03:54.217Z,100616.81
2022-11-20T00:08:52.986Z,100652.25
2022-11-20T00:13:51.412Z,100585.94
2022-11-20T00:18:48.752Z,100660.72
2022-11-20T00:23:45.733Z,100640.38
2022-11-20T00:28:44.770Z,100660.06
2022-11-20T00:33:42.431Z,100661.09
2022-11-20T00:38:39.398Z,100655.28
2022-11-20T00:43:37.373Z,100645.09
2022-11-20T00:48:35.182Z,100658.41
2022-11-20T00:53:32.420Z,100656.31
2022-11-20T00:58:31.979Z,100601.00
2022-11-20T01:03:32.196Z,100627.19
2022-11-20T01:08:32.326Z,100612.41
2022-11-20T01:13:39.531Z,100590.00
2022-11-20T01:18:37.125Z,100579.75
2022-11-20T01:23:36.108Z,100600.66
2022-11-20T01:28:33.657Z,100550.16
2022-11-20T01:33:30.614Z,100546.78
2022-11-20T01:38:27.626Z,100596.69
2022-11-20T01:43:26.333Z,100562.16
2022-11-20T01:48:26.403Z,100570.22
2022-11-20T01:53:28.931Z,100537.84
2022-11-20T01:58:33.297Z,100567.03
2022-11-20T02:03:30.388Z,100595.38
2022-11-20T02:08:27.460Z,100590.03
2022-11-20T02:13:41.862Z,100566.84
2022-11-20T02:18:39.950Z,100489.31
2022-11-20T02:23:40.763Z,100541.41
2022-11-20T02:28:38.726Z,100518.91
2022-11-20T02:33:35.776Z,100537.53
2022-11-20T02:38:32.684Z,100548.44
2022-11-20T02:43:29.547Z,100551.09
2022-11-20T02:48:30.156Z,100569.16
2022-11-20T02:53:29.854Z,100545.34
2022-11-20T02:58:26.658Z,100530.38
2022-11-20T03:03:23.726Z,100543.66
2022-11-20T03:08:21.402Z,100548.66
2022-11-20T03:13:18.333Z,100440.06
2022-11-20T03:18:15.373Z,100548.13
2022-11-20T03:23:12.387Z,100529.72
2022-11-20T03:28:09.871Z,100505.09
2022-11-20T03:33:07.166Z,100571.44
2022-11-20T03:38:04.042Z,100534.50
2022-11-20T03:43:00.939Z,100554.00
2022-11-20T03:47:58.472Z,100542.97
2022-11-20T03:52:55.473Z,100575.53
2022-11-20T03:57:52.554Z,100534.00
2022-11-20T04:02:49.597Z,100595.50
2022-11-20T04:07:47.407Z,100537.03
2022-11-20T04:12:44.403Z,100577.56
2022-11-20T04:17:41.383Z,100614.31
2022-11-20T04:22:38.424Z,100545.91
2022-11-20T04:27:36.018Z,100609.91
2022-11-20T04:32:32.940Z,100606.88
2022-11-20T04:37:29.836Z,100598.31
2022-11-20T04:42:29.397Z,100594.22
2022-11-20T04:47:26.895Z,100556.97
2022-11-20T04:52:24.228Z,100582.28
2022-11-20T04:57:21.305Z,100575.91
2022-11-20T05:02:18.427Z,100574.94
2022-11-20T05:07:16.882Z,100595.63
2022-11-20T05:12:14.265Z,100547.47
2022-11-20T05:17:11.934Z,100598.25
2022-11-20T05:22:08.911Z,100568.84
2022-11-20T05:27:06.704Z,100600.56
2022-11-20T05:32:03.791Z,100588.13
2022-11-20T05:37:00.681Z,100631.13
2022-11-20T05:42:12.069Z,100683.47
2022-11-20T05:47:12.025Z,100580.44
2022-11-20T05:52:09.060Z,100689.31
2022-11-20T05:57:05.950Z,100663.13
2022-11-20T06:02:02.889Z,100690.66
2022-11-20T06:07:00.450Z,100731.28
2022-11-20T06:11:57.441Z,100715.56
2022-11-20T06:16:54.442Z,100729.56
2022-11-20T06:21:51.626Z,100670.13
2022-11-20T06:26:49.195Z,100776.25
2022-11-20T06:31:51.531Z,100777.44
2022-11-20T06:36:50.390Z,100750.84
2022-11-20T06:41:57.260Z,100714.47
2022-11-20T06:46:55.731Z,100717.31
2022-11-20T06:51:52.521Z,100812.00
2022-11-20T06:56:50.819Z,100726.69
2022-11-20T07:01:48.196Z,100896.81
2022-11-20T07:06:45.251Z,100907.84
2022-11-20T07:11:42.213Z,100893.78
2022-11-20T07:16:40.667Z,100864.31
2022-11-20T07:21:37.966Z,100815.59
2022-11-20T07:26:35.917Z,100743.06
2022-11-20T07:31:36.028Z,100795.88
2022-11-20T07:36:34.099Z,100773.94
2022-11-20T07:41:30.965Z,100865.81
2022-11-20T07:46:28.054Z,100809.75
2022-11-20T07:51:26.400Z,100805.19
2022-11-20T07:56:23.934Z,100870.53
2022-11-20T08:01:21.531Z,100883.22
2022-11-20T08:06:19.912Z,100867.91
2022-11-20T08:11:34.673Z,100859.69
2022-11-20T08:16:32.579Z,100862.81
2022-11-20T08:21:36.721Z,100831.09
2022-11-20T08:26:35.726Z,100821.56
2022-11-20T08:31:33.880Z,100790.63
2022-11-20T08:36:34.501Z,100775.28
2022-11-20T08:41:37.226Z,100714.69
2022-11-20T08:46:37.757Z,100805.38
2022-11-20T08:51:35.374Z,100853.78
2022-11-20T08:56:33.148Z,100860.25
2022-11-20T09:01:30.921Z,100805.06
2022-11-20T09:06:28.568Z,100802.03
2022-11-20T09:11:25.590Z,100844.34
2022-11-20T09:16:22.687Z,100833.91
2022-11-20T09:21:19.662Z,100807.66
2022-11-20T09:26:17.328Z,100806.06
2022-11-20T09:31:22.867Z,100785.41
2022-11-20T09:36:20.467Z,100790.41
2022-11-20T09:41:46.279Z,100818.41
2022-11-20T09:46:54.569Z,100779.38
2022-11-20T09:51:58.856Z,100744.06
2022-11-20T09:57:00.487Z,100776.25
2022-11-20T10:01:59.386Z,100728.38
2022-11-20T10:07:31.028Z,100741.81
2022-11-20T10:12:31.448Z,100743.50
2022-11-20T10:17:52.841Z,100732.94
2022-11-20T10:23:02.555Z,100771.88
2022-11-20T10:28:13.961Z,100794.03
2022-11-20T10:33:18.267Z,100806.56
2022-11-20T10:38:21.601Z,100700.69
2022-11-20T10:43:22.620Z,100810.91
2022-11-20T10:48:22.439Z,100813.94
2022-11-20T10:53:32.635Z,100813.28
2022-11-20T10:58:38.024Z,100818.06
2022-11-20T11:03:35.584Z,100772.41
2022-11-20T11:08:39.584Z,100804.72
2022-11-20T11:13:40.244Z,100755.16
2022-11-20T11:18:43.197Z,100770.03
2022-11-20T11:23:42.010Z,100758.63
2022-11-20T11:28:39.832Z,100783.34
2022-11-20T11:33:36.989Z,100789.22
2022-11-20T11:38:37.342Z,100815.56
2022-11-20T11:43:55.198Z,100784.31
2022-11-20T11:48:58.091Z,100802.53
2022-11-20T11:53:55.164Z,100759.47
2022-11-20T11:59:01.565Z,100765.31
2022-11-20T12:04:07.112Z,100741.69
2022-11-20T12:09:06.805Z,100809.53
2022-11-20T12:14:10.956Z,100724.25
2022-11-20T12:19:12.761Z,100808.63
2022-11-20T12:24:38.597Z,100839.41
2022-11-20T12:29:52.331Z,100771.34
2022-11-20T12:35:05.002Z,100826.31
2022-11-20T12:40:22.323Z,100840.75
2022-11-20T12:45:41.226Z,100782.22
2022-11-20T12:51:16.267Z,100806.38
2022-11-20T12:56:21.240Z,100817.25
2022-11-20T13:01:42.680Z,100787.44
2022-11-20T13:06:43.105Z,100739.06
2022-11-20T13:11:46.800Z,100798.31
2022-11-20T13:16:51.283Z,100793.81
2022-11-20T13:21:51.911Z,100687.72
2022-11-20T13:26:49.092Z,100761.22
2022-11-20T13:31:48.147Z,100715.25
2022-11-20T13:36:53.930Z,100732.56
2022-11-20T13:41:55.316Z,100756.16
2022-11-20T13:46:52.465Z,100750.66
2022-11-20T13:51:51.788Z,100747.41
2022-11-20T13:57:06.112Z,100705.69
2022-11-20T14:02:03.582Z,100722.69
2022-11-20T14:07:02.032Z,100736.09
2022-11-20T14:12:02.629Z,100688.56
2022-11-20T14:17:08.044Z,100678.38
2022-11-20T14:22:12.454Z,100748.28
2022-11-20T14:27:15.271Z,100763.69
2022-11-20T14:32:15.266Z,100721.75
2022-11-20T14:37:18.152Z,100823.38
2022-11-20T14:42:17.431Z,100834.19
2022-11-20T14:47:19.264Z,100864.06
2022-11-20T14:52:20.051Z,100894.84
2022-11-20T14:57:28.714Z,100863.41
2022-11-20T15:02:25.699Z,100873.66
2022-11-20T15:07:28.725Z,100864.75
2022-11-20T15:12:25.884Z,100821.47
2022-11-20T15:17:23.504Z,100799.31
2022-11-20T15:22:20.407Z,100871.22
2022-11-20T15:27:18.455Z,100803.09
2022-11-20T15:32:15.789Z,100856.13
2022-11-20T15:37:13.164Z,100861.88
2022-11-20T15:42:10.904Z,100855.56
2022-11-20T15:47:10.322Z,100750.41
2022-11-20T15:52:10.206Z,100870.84
2022-11-20T15:57:07.278Z,100852.28
2022-11-20T16:02:06.478Z,100815.44
2022-11-20T16:07:04.412Z,100793.22
2022-11-20T16:12:05.914Z,100722.44
2022-11-20T16:17:03.975Z,100720.53
2022-11-20T16:22:04.428Z,100684.56
2022-11-20T16:27:03.788Z,100773.81
2022-11-20T16:32:01.012Z,100767.75
2022-11-20T16:36:58.222Z,100659.38
2022-11-20T16:41:55.356Z,100763.81
2022-11-20T16:46:53.325Z,100776.75
2022-11-20T16:51:52.147Z,100738.50
2022-11-20T16:56:51.183Z,100750.47
2022-11-20T17:01:48.545Z,100658.69
2022-11-20T17:06:48.130Z,100690.28
2022-11-20T17:11:45.211Z,100718.56
2022-11-20T17:16:44.709Z,100657.41
2022-11-20T17:21:43.991Z,100635.25
2022-11-20T17:26:43.206Z,100693.91
2022-11-20T17:31:41.246Z,100699.69
2022-11-20T17:36:44.811Z,100703.78
2022-11-20T17:41:43.267Z,100687.13
2022-11-20T17:46:40.628Z,100682.81
2022-11-20T17:51:37.804Z,100709.09
2022-11-20T17:56:57.443Z,100676.31
2022-11-20T18:02:02.241Z,100582.88
2022-11-20T18:07:01.317Z,100561.63
2022-11-20T18:11:58.731Z,100542.41
2022-11-20T18:16:58.851Z,100620.69
2022-11-20T18:21:56.569Z,100629.28
2022-11-20T18:26:54.944Z,100632.47
2022-11-20T18:31:55.091Z,100626.25
2022-11-20T18:36:56.098Z,100629.66
2022-11-20T18:42:11.298Z,100582.56
2022-11-20T18:47:14.788Z,100600.63
2022-11-20T18:52:13.322Z,100628.25
2022-11-20T18:57:16.751Z,100643.13
2022-11-20T19:02:23.726Z,100595.53
2022-11-20T19:07:31.182Z,100613.38
2022-11-20T19:12:28.464Z,100597.53
2022-11-20T19:17:25.894Z,100557.78
2022-11-20T19:22:23.867Z,100680.13
2022-11-20T19:27:21.432Z,100631.25
2022-11-20T19:32:18.693Z,100637.75
2022-11-20T19:37:16.187Z,100581.13
2022-11-20T19:42:16.438Z,100656.09
2022-11-20T19:47:14.840Z,100605.63
2022-11-20T19:52:12.398Z,100609.56
2022-11-20T19:57:09.580Z,100633.50
2022-11-20T20:02:09.555Z,100632.00
2022-11-20T20:07:07.095Z,100660.63
2022-11-20T20:12:04.876Z,100598.84
2022-11-20T20:17:01.942Z,100589.34
2022-11-20T20:22:02.493Z,100634.63
2022-11-20T20:26:59.619Z,100611.56
2022-11-20T20:32:00.369Z,100628.38
2022-11-20T20:37:03.452Z,100626.53
2022-11-20T20:42:04.459Z,100577.13
2022-11-20T20:47:05.566Z,100567.44
2022-11-20T20:52:22.510Z,100598.44
2022-11-20T20:57:28.690Z,100575.56
2022-11-20T21:02:26.104Z,100552.66
2022-11-20T21:07:25.568Z,100516.47
2022-11-20T21:12:25.481Z,100483.16
2022-11-20T21:17:28.614Z,100533.25
2022-11-20T21:22:25.969Z,100480.06
2022-11-20T21:27:29.434Z,100478.63
2022-11-20T21:32:26.568Z,100461.94
2022-11-20T21:37:23.554Z,100485.63
2022-11-20T21:42:22.528Z,100498.47
2022-11-20T21:47:20.424Z,100404.13
2022-11-20T21:52:20.281Z,100440.88
2022-11-20T21:57:17.365Z,100349.06
2022-11-20T22:02:14.575Z,100447.06
2022-11-20T22:07:15.508Z,100399.47
2022-11-20T22:12:12.902Z,100418.53
2022-11-20T22:17:13.246Z,100373.19
2022-11-20T22:22:10.411Z,100282.78
2022-11-20T22:27:10.418Z,100414.69
2022-11-20T22:32:08.226Z,100330.06
2022-11-20T22:37:05.258Z,100427.00
2022-11-20T22:42:02.354Z,100376.84
2022-11-20T22:47:07.460Z,100368.06
2022-11-20T22:52:11.615Z,100377.19
2022-11-20T22:57:08.913Z,100294.72
2022-11-20T23:02:08.503Z,100319.81
2022-11-20T23:07:08.429Z,100353.41
2022-11-20T23:12:09.104Z,100319.66
2022-11-20T23:17:10.154Z,100233.41
2022-11-20T23:22:08.272Z,100233.41
2022-11-20T23:27:05.748Z,100286.44
2022-11-20T23:32:11.872Z,100216.69
2022-11-20T23:37:09.036Z,100285.91
2022-11-20T23:42:08.801Z,100235.88
2022-11-20T23:47:09.642Z,100224.19
2022-11-20T23:52:06.782Z,100174.66
2022-11-20T23:57:03.908Z,100194.41
